Terminal Aerodrome Forecast
Issued by NWS Wilmington, OH

Home | Current Version | Previous Version | Text Only | Print | Product List | Glossary On
Versions: 1 2 3 4 5 6 7 8 9 10 11 12 13 14 15 16 17 18 19
000
FTUS41 KILN 221731 AAA
TAFDAY
TAF AMD
KDAY 221731Z 2218/2318 04009KT P6SM FEW035
     FM222300 05007KT P6SM SKC
     FM230500 09006KT P6SM FEW250
     FM231500 12010KT P6SM SCT250=

USA.gov is the U.S. government's official web portal to all federal, state and local government web resources and services.